Time;durP1;ratioP1;P1;durP2;ratioP2;P2;SDS_P1;SDS_P2;PMS_P1;PMS_P2;Temp;Humidity;BMP_temperature;BMP_pressure;BME280_temperature;BME280_humidity;BME280_pressure;Samples;Min_cycle;Max_cycle;Signal;HPM_P1;HPM_P2
2021/08/12 00:01:48;;;;;;;4.60;3.40;;;15.30;99.90;;;;;;492284;241;28903;-72
2021/08/12 00:03:49;;;;;;;3.87;3.47;;;15.30;99.90;;;;;;492330;241;28787;-70
2021/08/12 00:05:51;;;;;;;3.90;3.50;;;;;;;;;;492327;241;28804;-70
2021/08/12 00:07:52;;;;;;;4.10;3.70;;;15.30;99.90;;;;;;492326;241;27396;-72
2021/08/12 00:09:55;;;;;;;4.40;3.50;;;;;;;;;;492302;241;29272;-71
2021/08/12 00:11:57;;;;;;;3.53;3.23;;;15.20;99.90;;;;;;492310;241;27712;-71
2021/08/12 00:13:58;;;;;;;3.30;3.00;;;;;;;;;;492259;241;28812;-72
2021/08/12 00:16:03;;;;;;;3.30;3.00;;;15.20;99.90;;;;;;492310;241;27372;-72
2021/08/12 00:18:04;;;;;;;3.77;3.47;;;;;;;;;;492243;241;29435;-71
2021/08/12 00:20:05;;;;;;;3.30;3.00;;;15.20;99.90;;;;;;492315;241;27884;-71
2021/08/12 00:22:06;;;;;;;4.03;3.60;;;15.20;99.90;;;;;;492154;241;28814;-71
2021/08/12 00:24:09;;;;;;;4.57;3.73;;;;;;;;;;492297;241;28767;-70
2021/08/12 00:26:13;;;;;;;3.50;3.20;;;;;;;;;;492312;241;27364;-71
2021/08/12 00:28:15;;;;;;;3.07;2.87;;;;;;;;;;492342;240;26285;-70
2021/08/12 00:30:17;;;;;;;3.27;2.97;;;;;;;;;;492326;241;27468;-70
2021/08/12 00:32:18;;;;;;;3.40;3.00;;;15.10;99.90;;;;;;492324;241;26372;-70
2021/08/12 00:34:21;;;;;;;3.60;3.30;;;;;;;;;;492332;241;28770;-70
2021/08/12 00:36:23;;;;;;;3.90;3.03;;;;;;;;;;492334;241;26769;-71
2021/08/12 00:38:25;;;;;;;3.40;3.10;;;15.00;99.90;;;;;;492336;241;27504;-70
2021/08/12 00:40:26;;;;;;;3.20;2.90;;;15.00;99.90;;;;;;492347;241;28756;-70
2021/08/12 00:42:27;;;;;;;3.53;3.23;;;14.90;99.90;;;;;;492312;241;28822;-71
2021/08/12 00:44:28;;;;;;;2.83;2.63;;;14.90;99.90;;;;;;492339;241;28791;-71
2021/08/12 00:46:30;;;;;;;3.77;3.47;;;15.00;99.90;;;;;;492307;240;28794;-70
2021/08/12 00:48:31;;;;;;;3.67;3.30;;;15.00;99.90;;;;;;492336;241;28863;-70
2021/08/12 00:50:32;;;;;;;3.10;2.90;;;15.00;99.90;;;;;;492315;241;28768;-70
2021/08/12 00:52:33;;;;;;;3.70;3.40;;;15.00;99.90;;;;;;492337;241;28896;-72
2021/08/12 00:54:35;;;;;;;3.47;3.03;;;15.00;99.90;;;;;;492330;241;28893;-70
2021/08/12 00:56:36;;;;;;;3.70;3.40;;;15.00;99.90;;;;;;492290;241;29322;-72
2021/08/12 00:58:37;;;;;;;3.30;3.00;;;14.90;99.90;;;;;;492325;241;29390;-70
2021/08/12 01:00:39;;;;;;;3.27;2.97;;;;;;;;;;492298;241;29319;-70
2021/08/12 01:02:40;;;;;;;3.60;3.30;;;14.90;99.90;;;;;;491860;241;27964;-72
2021/08/12 01:04:42;;;;;;;3.43;3.10;;;14.90;99.90;;;;;;492300;241;28811;-73
2021/08/12 01:06:43;;;;;;;3.60;3.30;;;14.90;99.90;;;;;;492337;241;28894;-70
2021/08/12 01:08:45;;;;;;;3.03;2.83;;;;;;;;;;492313;241;28882;-70
2021/08/12 01:10:46;;;;;;;3.20;2.90;;;14.80;99.90;;;;;;492330;241;27479;-69
2021/08/12 01:12:47;;;;;;;3.47;3.00;;;14.80;99.90;;;;;;492336;241;28823;-69
2021/08/12 01:14:50;;;;;;;3.17;2.97;;;;;;;;;;492310;241;28784;-70
2021/08/12 01:16:51;;;;;;;3.90;3.50;;;14.70;99.90;;;;;;492342;241;27534;-71
2021/08/12 01:18:52;;;;;;;3.07;2.77;;;14.70;99.90;;;;;;492328;241;28875;-72
2021/08/12 01:20:54;;;;;;;3.40;3.10;;;;;;;;;;492354;241;28831;-71
2021/08/12 01:22:55;;;;;;;3.30;3.00;;;14.70;99.90;;;;;;492336;241;27539;-71
2021/08/12 01:24:57;;;;;;;3.33;2.97;;;;;;;;;;491986;241;29325;-71
2021/08/12 01:27:00;;;;;;;4.23;3.40;;;;;;;;;;492369;241;27983;-71
2021/08/12 01:29:01;;;;;;;3.67;3.13;;;14.70;99.90;;;;;;492336;241;28028;-70
2021/08/12 01:31:04;;;;;;;3.23;3.00;;;;;;;;;;492349;241;29405;-72
2021/08/12 01:33:05;;;;;;;3.33;3.03;;;14.70;99.90;;;;;;492332;241;26286;-70
2021/08/12 01:35:06;;;;;;;3.20;2.90;;;14.70;99.90;;;;;;492314;241;28893;-70
2021/08/12 01:37:08;;;;;;;3.10;2.90;;;14.70;99.90;;;;;;492121;241;28823;-72
2021/08/12 01:39:10;;;;;;;3.40;3.10;;;14.60;99.90;;;;;;492336;241;28775;-70
2021/08/12 01:41:10;;;;;;;3.30;3.00;;;14.60;99.90;;;;;;492274;241;28799;-71
2021/08/12 01:43:11;;;;;;;3.10;2.80;;;14.60;99.90;;;;;;492332;241;28500;-71
2021/08/12 01:45:13;;;;;;;3.50;3.20;;;14.60;99.90;;;;;;492339;241;28810;-70
2021/08/12 01:47:14;;;;;;;3.40;3.10;;;14.50;99.90;;;;;;492085;241;28798;-70
2021/08/12 01:49:15;;;;;;;3.60;3.30;;;14.50;99.90;;;;;;491448;241;28820;-70
2021/08/12 01:51:16;;;;;;;3.50;3.20;;;14.50;99.90;;;;;;492131;241;29271;-71
2021/08/12 01:53:18;;;;;;;3.67;3.37;;;14.50;99.90;;;;;;492278;241;29238;-70
2021/08/12 01:55:19;;;;;;;5.80;3.00;;;14.50;99.90;;;;;;492342;241;28991;-71
2021/08/12 01:57:20;;;;;;;6.03;3.60;;;14.40;99.90;;;;;;492334;241;28831;-70
2021/08/12 01:59:21;;;;;;;3.53;3.23;;;14.40;99.90;;;;;;492337;241;28775;-70
2021/08/12 02:01:23;;;;;;;3.80;3.50;;;14.40;99.90;;;;;;492349;241;28815;-71
2021/08/12 02:03:24;;;;;;;3.60;3.30;;;14.50;99.90;;;;;;492328;241;28640;-70
2021/08/12 02:05:25;;;;;;;3.10;2.90;;;14.40;99.90;;;;;;492358;241;28905;-71
2021/08/12 02:07:26;;;;;;;5.00;3.43;;;14.40;99.90;;;;;;492348;241;28638;-71
2021/08/12 02:09:28;;;;;;;3.23;3.03;;;14.40;99.90;;;;;;492357;241;28788;-70
2021/08/12 02:11:29;;;;;;;3.50;3.20;;;14.40;99.90;;;;;;492345;241;28814;-70
2021/08/12 02:13:30;;;;;;;4.53;3.33;;;14.40;99.90;;;;;;492352;241;28858;-70
2021/08/12 02:15:32;;;;;;;3.40;3.10;;;14.40;99.90;;;;;;492354;241;29342;-70
2021/08/12 02:17:33;;;;;;;3.30;3.00;;;14.40;99.90;;;;;;492348;241;29444;-71
2021/08/12 02:19:34;;;;;;;3.43;3.13;;;14.40;99.90;;;;;;492305;241;29294;-70
2021/08/12 02:21:35;;;;;;;3.70;3.40;;;14.30;99.90;;;;;;492350;241;29243;-70
2021/08/12 02:23:36;;;;;;;3.40;3.10;;;14.30;99.90;;;;;;492358;241;28878;-70
2021/08/12 02:25:38;;;;;;;3.37;2.90;;;14.40;99.90;;;;;;492372;241;28515;-71
2021/08/12 02:27:39;;;;;;;3.07;2.77;;;14.40;99.90;;;;;;492237;241;28800;-70
2021/08/12 02:29:40;;;;;;;4.80;2.60;;;14.40;99.90;;;;;;492334;241;28299;-70
2021/08/12 02:31:41;;;;;;;3.17;2.87;;;14.40;99.90;;;;;;492331;241;28507;-70
2021/08/12 02:33:43;;;;;;;3.57;3.27;;;14.40;99.90;;;;;;492369;241;28832;-70
2021/08/12 02:35:44;;;;;;;3.20;2.90;;;14.40;99.90;;;;;;492322;241;28839;-70
2021/08/12 02:37:45;;;;;;;3.13;2.83;;;14.40;99.90;;;;;;492316;241;28893;-71
2021/08/12 02:39:46;;;;;;;3.30;3.00;;;14.30;99.90;;;;;;492314;241;29105;-72
2021/08/12 02:41:48;;;;;;;3.33;3.00;;;14.30;99.90;;;;;;492321;241;29369;-71
2021/08/12 02:43:49;;;;;;;3.40;3.10;;;14.30;99.90;;;;;;492310;241;29246;-70
2021/08/12 02:45:50;;;;;;;3.20;2.90;;;14.30;99.90;;;;;;492320;241;29279;-70
2021/08/12 02:47:51;;;;;;;3.07;2.83;;;14.30;99.90;;;;;;492296;241;28802;-70
2021/08/12 02:49:53;;;;;;;4.83;3.07;;;14.30;99.90;;;;;;492303;241;28262;-72
2021/08/12 02:51:54;;;;;;;3.20;2.90;;;14.30;99.90;;;;;;492291;241;28548;-71
2021/08/12 02:53:55;;;;;;;3.20;2.90;;;14.30;99.90;;;;;;492299;241;28770;-71
2021/08/12 02:55:56;;;;;;;3.37;3.07;;;14.30;99.90;;;;;;492290;241;28910;-71
2021/08/12 02:57:58;;;;;;;3.27;2.97;;;14.30;99.90;;;;;;492277;240;29232;-69
2021/08/12 02:59:59;;;;;;;3.23;2.93;;;14.30;99.90;;;;;;492293;241;28873;-70
2021/08/12 03:02:00;;;;;;;5.93;3.33;;;14.30;99.90;;;;;;492289;241;28818;-70
2021/08/12 03:04:01;;;;;;;2.73;2.53;;;14.30;99.90;;;;;;492294;241;28824;-70
2021/08/12 03:06:03;;;;;;;3.73;3.30;;;14.20;99.90;;;;;;492320;241;29000;-71
2021/08/12 03:08:04;;;;;;;3.50;3.20;;;14.20;99.90;;;;;;492363;241;29274;-70
2021/08/12 03:10:05;;;;;;;3.30;3.00;;;14.20;99.90;;;;;;492351;241;28903;-70
2021/08/12 03:12:06;;;;;;;3.30;3.00;;;14.20;99.90;;;;;;492355;241;28520;-72
2021/08/12 03:14:08;;;;;;;3.20;2.90;;;14.20;99.90;;;;;;491979;241;28799;-70
2021/08/12 03:16:09;;;;;;;3.10;2.90;;;14.20;99.90;;;;;;492320;241;28505;-70
2021/08/12 03:18:10;;;;;;;3.33;3.03;;;14.10;99.90;;;;;;492234;241;28822;-71
2021/08/12 03:20:12;;;;;;;2.70;2.50;;;14.10;99.90;;;;;;492292;241;28603;-70
2021/08/12 03:22:13;;;;;;;2.93;2.73;;;14.10;99.90;;;;;;492289;241;28818;-72
2021/08/12 03:24:14;;;;;;;3.50;3.20;;;14.00;99.90;;;;;;492340;241;28435;-72
2021/08/12 03:26:15;;;;;;;3.10;2.80;;;14.00;99.90;;;;;;492309;241;28683;-72
2021/08/12 03:28:17;;;;;;;3.33;3.03;;;14.00;99.90;;;;;;492306;241;29401;-69
2021/08/12 03:30:18;;;;;;;4.17;3.20;;;14.10;99.90;;;;;;492343;241;29309;-69
2021/08/12 03:32:19;;;;;;;3.63;3.33;;;14.00;99.90;;;;;;492331;241;29205;-69
2021/08/12 03:34:20;;;;;;;3.20;2.83;;;14.00;99.90;;;;;;492348;241;28812;-72
2021/08/12 03:36:22;;;;;;;4.97;2.90;;;14.00;99.90;;;;;;492339;241;28381;-72
2021/08/12 03:38:23;;;;;;;3.43;3.10;;;14.00;99.90;;;;;;492335;241;28808;-72
2021/08/12 03:40:24;;;;;;;3.57;3.23;;;14.00;99.90;;;;;;492347;241;28406;-72
2021/08/12 03:42:25;;;;;;;2.73;2.53;;;14.00;99.90;;;;;;492301;241;28796;-72
2021/08/12 03:44:27;;;;;;;3.40;3.10;;;14.00;99.90;;;;;;492332;241;28373;-72
2021/08/12 03:46:28;;;;;;;3.50;2.80;;;14.00;99.90;;;;;;492356;241;28501;-72
2021/08/12 03:48:29;;;;;;;3.30;3.00;;;14.00;99.90;;;;;;492329;241;28826;-72
2021/08/12 03:50:30;;;;;;;3.03;2.80;;;14.00;99.90;;;;;;492330;241;28503;-71
2021/08/12 03:52:32;;;;;;;3.70;3.40;;;13.90;99.90;;;;;;492349;241;28508;-70
2021/08/12 03:54:35;;;;;;;3.40;3.10;;;13.90;99.90;;;;;;492336;237;29602;-70
2021/08/12 03:56:34;;;;;;;3.00;2.80;;;13.90;99.90;;;;;;492179;241;29003;-71
2021/08/12 03:58:37;;;;;;;3.00;2.80;;;13.90;99.90;;;;;;492338;241;28721;-70
2021/08/12 04:00:37;;;;;;;3.27;2.97;;;13.90;99.90;;;;;;492236;241;28380;-70
2021/08/12 04:02:38;;;;;;;2.80;2.60;;;14.00;99.90;;;;;;491401;241;28402;-70
2021/08/12 04:04:39;;;;;;;4.60;3.10;;;14.00;99.90;;;;;;492194;241;28513;-70
2021/08/12 04:06:40;;;;;;;3.10;2.80;;;14.00;99.90;;;;;;492305;241;28775;-70
2021/08/12 04:08:42;;;;;;;3.30;3.00;;;14.00;99.90;;;;;;492330;241;28302;-70
2021/08/12 04:10:43;;;;;;;2.80;2.60;;;14.00;99.90;;;;;;492331;241;28160;-70
2021/08/12 04:12:44;;;;;;;3.30;3.00;;;14.00;99.90;;;;;;492288;241;28865;-70
2021/08/12 04:14:45;;;;;;;3.20;2.90;;;14.00;99.90;;;;;;492318;241;28254;-70
2021/08/12 04:16:47;;;;;;;3.47;3.17;;;14.00;99.90;;;;;;492312;240;28556;-71
2021/08/12 04:18:48;;;;;;;3.97;3.57;;;14.00;99.90;;;;;;492326;241;28806;-72
2021/08/12 04:20:49;;;;;;;3.90;3.60;;;14.00;99.90;;;;;;492334;241;29227;-70
2021/08/12 04:22:50;;;;;;;3.70;3.40;;;14.00;99.90;;;;;;492334;241;29088;-70
2021/08/12 04:24:52;;;;;;;4.17;3.73;;;14.10;99.90;;;;;;492317;240;29477;-70
2021/08/12 04:26:53;;;;;;;3.80;3.50;;;14.10;99.90;;;;;;492286;241;28769;-71
2021/08/12 04:28:54;;;;;;;4.20;3.80;;;14.10;99.90;;;;;;492316;241;28423;-70
2021/08/12 04:30:55;;;;;;;4.10;3.80;;;14.10;99.90;;;;;;492302;241;28474;-70
2021/08/12 04:32:57;;;;;;;5.23;3.80;;;14.10;99.90;;;;;;492284;241;28425;-70
2021/08/12 04:34:59;;;;;;;3.73;3.43;;;14.00;99.90;;;;;;492288;241;28313;-70
2021/08/12 04:36:59;;;;;;;3.87;3.57;;;14.00;99.90;;;;;;492308;241;28367;-70
2021/08/12 04:39:00;;;;;;;3.50;3.20;;;14.10;99.90;;;;;;492300;240;28531;-70
2021/08/12 04:41:02;;;;;;;4.30;3.27;;;14.20;99.90;;;;;;492281;241;28571;-70
2021/08/12 04:43:03;;;;;;;3.90;3.60;;;14.20;99.90;;;;;;492289;241;28860;-70
2021/08/12 04:45:04;;;;;;;3.10;2.90;;;14.20;99.90;;;;;;492333;241;29272;-70
2021/08/12 04:47:05;;;;;;;4.50;3.40;;;14.20;99.90;;;;;;492373;241;29044;-69
2021/08/12 04:49:07;;;;;;;3.80;2.97;;;14.20;99.90;;;;;;492366;241;28581;-70
2021/08/12 04:51:08;;;;;;;3.50;3.20;;;14.20;99.90;;;;;;492339;241;28843;-70
2021/08/12 04:53:09;;;;;;;3.90;3.03;;;14.20;99.90;;;;;;492346;241;28385;-69
2021/08/12 04:55:10;;;;;;;3.33;3.13;;;14.20;99.90;;;;;;492343;241;28838;-70
2021/08/12 04:57:12;;;;;;;4.03;3.20;;;14.20;99.90;;;;;;492212;241;28808;-69
2021/08/12 04:59:13;;;;;;;3.17;2.87;;;14.30;99.90;;;;;;492331;241;28531;-70
2021/08/12 05:01:14;;;;;;;3.17;2.87;;;14.30;99.90;;;;;;492380;241;28500;-70
2021/08/12 05:03:15;;;;;;;3.37;3.07;;;14.40;99.90;;;;;;492331;241;28790;-70
2021/08/12 05:05:17;;;;;;;3.30;3.10;;;14.40;99.90;;;;;;492348;241;28810;-71
2021/08/12 05:07:18;;;;;;;2.77;2.57;;;14.40;99.90;;;;;;492339;241;29329;-70
2021/08/12 05:09:19;;;;;;;3.40;3.10;;;14.40;99.90;;;;;;492326;241;29428;-70
2021/08/12 05:11:20;;;;;;;3.60;3.30;;;14.40;99.90;;;;;;492340;241;29218;-71
2021/08/12 05:13:22;;;;;;;3.40;3.10;;;14.40;99.90;;;;;;492293;241;29154;-70
2021/08/12 05:15:23;;;;;;;3.30;3.00;;;14.40;99.90;;;;;;492327;241;28525;-70
2021/08/12 05:17:24;;;;;;;3.63;3.33;;;14.50;99.90;;;;;;492327;241;28608;-72
2021/08/12 05:19:25;;;;;;;3.90;3.00;;;14.50;99.90;;;;;;492325;241;28918;-70
2021/08/12 05:21:27;;;;;;;3.27;3.00;;;14.50;99.90;;;;;;492321;241;28788;-69
2021/08/12 05:23:28;;;;;;;3.37;3.07;;;14.40;99.90;;;;;;492269;241;28833;-69
2021/08/12 05:25:29;;;;;;;2.93;2.73;;;14.40;99.90;;;;;;492362;241;28816;-69
2021/08/12 05:27:30;;;;;;;3.00;2.80;;;14.40;99.90;;;;;;492316;241;28767;-69
2021/08/12 05:29:33;;;;;;;3.23;2.93;;;14.50;99.90;;;;;;492308;241;28909;-72
2021/08/12 05:31:33;;;;;;;3.17;2.97;;;14.50;99.90;;;;;;492236;241;30293;-69
2021/08/12 05:33:34;;;;;;;3.77;3.43;;;14.60;99.90;;;;;;492321;240;29286;-69
2021/08/12 05:35:35;;;;;;;3.40;3.10;;;14.70;99.90;;;;;;492336;241;29310;-69
2021/08/12 05:37:37;;;;;;;3.60;3.30;;;14.80;99.90;;;;;;492318;241;29265;-72
2021/08/12 05:39:38;;;;;;;3.00;2.80;;;14.90;99.90;;;;;;492318;241;28819;-71
2021/08/12 05:41:39;;;;;;;3.87;3.57;;;14.90;99.90;;;;;;492270;241;28774;-71
2021/08/12 05:43:40;;;;;;;3.17;2.97;;;15.00;99.90;;;;;;492322;241;28777;-73
2021/08/12 05:45:42;;;;;;;6.60;3.40;;;15.20;99.90;;;;;;492310;241;28983;-72
2021/08/12 05:47:43;;;;;;;3.13;2.83;;;15.20;99.90;;;;;;492329;241;28783;-71
2021/08/12 05:49:44;;;;;;;2.93;2.70;;;15.30;99.90;;;;;;492227;241;28927;-72
2021/08/12 05:51:45;;;;;;;3.53;3.33;;;15.40;99.90;;;;;;492291;241;29175;-72
2021/08/12 05:53:47;;;;;;;3.00;2.80;;;15.50;99.90;;;;;;492303;241;28775;-69
2021/08/12 05:55:48;;;;;;;3.37;3.07;;;15.60;99.90;;;;;;492312;241;29324;-70
2021/08/12 05:57:49;;;;;;;3.73;3.40;;;15.60;99.90;;;;;;492306;241;29349;-70
2021/08/12 05:59:50;;;;;;;4.80;3.57;;;15.70;99.90;;;;;;492337;241;29282;-70
2021/08/12 06:01:52;;;;;;;3.50;3.20;;;15.80;99.90;;;;;;492309;241;29329;-70
2021/08/12 06:03:53;;;;;;;3.50;3.20;;;15.80;99.90;;;;;;492309;241;28788;-71
2021/08/12 06:05:54;;;;;;;3.60;3.30;;;15.90;99.90;;;;;;492299;241;28839;-72
2021/08/12 06:07:55;;;;;;;3.07;2.87;;;15.90;99.90;;;;;;492307;240;28834;-71
2021/08/12 06:09:58;;;;;;;4.10;3.50;;;;;;;;;;492254;241;28781;-70
2021/08/12 06:12:00;;;;;;;4.53;3.40;;;;;;;;;;492275;238;27387;-72
2021/08/12 06:14:02;;;;;;;3.03;2.83;;;;;;;;;;492296;241;27381;-72
2021/08/12 06:16:06;;;;;;;3.13;2.83;;;;;;;;;;492319;241;27433;-70
2021/08/12 06:18:06;;;;;;;2.93;2.73;;;;;;;;;;492256;241;27399;-72
2021/08/12 06:20:07;;;;;;;5.30;3.27;;;15.90;99.90;;;;;;492310;241;27375;-69
2021/08/12 06:22:08;;;;;;;3.07;2.83;;;16.00;99.90;;;;;;492275;241;28719;-70
2021/08/12 06:24:14;;;;;;;3.77;3.47;;;;;;;;;;492303;241;28718;-70
2021/08/12 06:26:12;;;;;;;3.97;3.50;;;15.90;99.90;;;;;;492201;241;28045;-70
2021/08/12 06:28:13;;;;;;;4.00;3.40;;;15.90;99.90;;;;;;492311;241;29292;-73
2021/08/12 06:30:14;;;;;;;3.60;3.30;;;15.90;99.90;;;;;;492306;241;29307;-72
2021/08/12 06:32:15;;;;;;;3.67;3.37;;;16.00;99.90;;;;;;492313;241;28902;-72
2021/08/12 06:34:17;;;;;;;3.50;3.20;;;;;;;;;;492301;241;28875;-71
2021/08/12 06:36:19;;;;;;;3.40;3.10;;;16.10;99.90;;;;;;492324;241;27495;-69
2021/08/12 06:38:20;;;;;;;3.60;3.30;;;16.10;99.90;;;;;;492315;241;28768;-69
2021/08/12 06:40:21;;;;;;;3.07;2.83;;;16.20;99.90;;;;;;492248;241;28890;-69
2021/08/12 06:42:22;;;;;;;9.53;5.10;;;16.30;99.90;;;;;;492328;241;28889;-71
2021/08/12 06:44:24;;;;;;;4.23;3.70;;;16.30;99.90;;;;;;492312;241;28792;-69
2021/08/12 06:46:25;;;;;;;3.67;3.40;;;16.40;99.90;;;;;;492292;241;28836;-69
2021/08/12 06:48:26;;;;;;;4.30;3.90;;;16.50;99.90;;;;;;492306;241;28773;-69
2021/08/12 06:50:27;;;;;;;3.53;3.30;;;16.50;99.90;;;;;;492292;241;29379;-70
2021/08/12 06:52:29;;;;;;;4.00;3.60;;;16.50;99.90;;;;;;492300;241;29287;-72
2021/08/12 06:54:30;;;;;;;4.50;4.10;;;16.60;99.90;;;;;;492317;241;29200;-71
2021/08/12 06:56:31;;;;;;;3.60;3.30;;;16.60;99.90;;;;;;492320;241;29289;-71
2021/08/12 06:58:32;;;;;;;4.53;3.90;;;16.70;99.90;;;;;;492352;241;28766;-72
2021/08/12 07:00:34;;;;;;;4.00;3.70;;;16.80;99.90;;;;;;492290;241;28789;-70
2021/08/12 07:02:35;;;;;;;4.50;4.10;;;16.80;99.90;;;;;;492340;241;28878;-72
2021/08/12 07:04:36;;;;;;;4.37;3.97;;;16.90;99.90;;;;;;492313;241;28874;-72
2021/08/12 07:06:39;;;;;;;4.13;3.73;;;17.00;99.90;;;;;;492331;241;28700;-72
2021/08/12 07:08:39;;;;;;;5.23;4.73;;;17.10;99.90;;;;;;492268;241;28890;-72
2021/08/12 07:10:40;;;;;;;5.40;4.53;;;17.20;99.90;;;;;;492307;241;28772;-72
2021/08/12 07:12:41;;;;;;;5.10;4.60;;;17.30;99.90;;;;;;492341;241;28814;-72
2021/08/12 07:14:42;;;;;;;5.60;5.10;;;17.40;99.90;;;;;;492338;241;28800;-72
2021/08/12 07:16:44;;;;;;;7.23;5.50;;;17.50;99.90;;;;;;492343;241;29291;-71
2021/08/12 07:18:45;;;;;;;6.07;5.47;;;17.50;99.90;;;;;;492315;241;29277;-69
2021/08/12 07:20:48;;;;;;;7.43;6.10;;;17.70;99.90;;;;;;492309;237;29211;-72
2021/08/12 07:22:47;;;;;;;10.83;7.20;;;17.80;99.90;;;;;;492207;241;28816;-72
2021/08/12 07:24:49;;;;;;;6.50;5.90;;;17.80;99.90;;;;;;492298;241;28685;-70
2021/08/12 07:26:50;;;;;;;8.20;7.13;;;17.90;99.90;;;;;;492288;241;28721;-69
2021/08/12 07:28:51;;;;;;;7.20;6.40;;;18.10;99.90;;;;;;492292;241;28715;-69
2021/08/12 07:30:52;;;;;;;7.70;6.90;;;18.20;99.90;;;;;;492316;241;28772;-69
2021/08/12 07:32:54;;;;;;;7.87;6.60;;;18.30;99.90;;;;;;492304;241;28821;-72
2021/08/12 07:34:55;;;;;;;7.00;6.30;;;18.40;99.90;;;;;;492281;241;28922;-71
2021/08/12 07:36:56;;;;;;;7.17;5.63;;;18.50;99.90;;;;;;492282;241;28781;-71
2021/08/12 07:38:57;;;;;;;6.57;5.67;;;18.50;99.90;;;;;;492365;241;28821;-71
2021/08/12 07:40:59;;;;;;;6.13;5.53;;;18.60;99.90;;;;;;492352;241;29344;-72
2021/08/12 07:43:00;;;;;;;6.20;5.50;;;18.80;99.90;;;;;;492365;241;29336;-72
2021/08/12 07:45:02;;;;;;;8.00;5.77;;;18.90;99.90;;;;;;492346;241;29221;-72
2021/08/12 07:47:02;;;;;;;5.23;4.73;;;19.00;99.90;;;;;;492296;241;28915;-70
2021/08/12 07:49:04;;;;;;;5.97;5.37;;;19.20;99.90;;;;;;492238;241;28807;-70
2021/08/12 07:51:05;;;;;;;5.10;4.40;;;19.30;99.90;;;;;;492339;241;28844;-69
2021/08/12 07:53:06;;;;;;;6.67;5.00;;;19.40;99.90;;;;;;492333;241;28882;-72
2021/08/12 07:55:07;;;;;;;5.57;5.07;;;19.50;99.90;;;;;;492371;241;28779;-72
2021/08/12 07:57:09;;;;;;;5.90;4.60;;;19.60;99.90;;;;;;492342;241;28782;-72
2021/08/12 07:59:10;;;;;;;4.67;4.17;;;19.60;99.90;;;;;;492359;240;28897;-70
2021/08/12 08:01:11;;;;;;;4.60;4.20;;;19.80;99.90;;;;;;492337;241;28780;-70
2021/08/12 08:03:12;;;;;;;5.67;4.10;;;19.90;99.90;;;;;;492347;241;29328;-70
2021/08/12 08:05:14;;;;;;;5.10;4.10;;;20.10;99.90;;;;;;492337;241;30353;-70
2021/08/12 08:07:15;;;;;;;4.43;4.00;;;20.10;99.90;;;;;;492359;241;29408;-70
2021/08/12 08:09:16;;;;;;;4.03;3.73;;;20.20;99.90;;;;;;492351;241;29370;-71
2021/08/12 08:11:17;;;;;;;4.80;4.33;;;20.40;99.90;;;;;;492357;241;28761;-72
2021/08/12 08:13:19;;;;;;;4.97;4.47;;;20.40;99.90;;;;;;492348;241;28812;-71
2021/08/12 08:15:20;;;;;;;4.30;3.83;;;20.40;99.90;;;;;;492352;237;28812;-71
2021/08/12 08:17:21;;;;;;;3.97;3.57;;;20.50;99.90;;;;;;492367;241;28764;-71
2021/08/12 08:19:22;;;;;;;4.60;4.00;;;20.60;99.90;;;;;;492362;241;28807;-71
2021/08/12 08:21:24;;;;;;;5.27;3.97;;;20.70;99.90;;;;;;492352;241;28775;-71
2021/08/12 08:23:25;;;;;;;3.90;3.50;;;20.80;99.90;;;;;;492353;241;28860;-72
2021/08/12 08:25:26;;;;;;;4.03;3.63;;;20.80;99.90;;;;;;492327;241;28800;-71
2021/08/12 08:27:27;;;;;;;4.60;4.20;;;20.90;99.90;;;;;;492358;241;28783;-69
2021/08/12 08:29:29;;;;;;;4.13;3.80;;;21.00;99.90;;;;;;492353;241;29258;-72
2021/08/12 08:31:30;;;;;;;4.23;3.60;;;21.10;99.90;;;;;;492353;241;29295;-71
2021/08/12 08:33:35;;;;;;;3.50;3.20;;;21.10;99.90;;;;;;492351;241;29392;-72
2021/08/12 08:35:34;;;;;;;3.77;3.43;;;21.20;99.90;;;;;;491954;241;28820;-72
2021/08/12 08:37:35;;;;;;;3.80;3.50;;;21.20;99.90;;;;;;492007;241;27515;-71
2021/08/12 08:39:36;;;;;;;3.70;3.40;;;21.30;99.90;;;;;;492361;241;28803;-72
2021/08/12 08:41:37;;;;;;;3.77;3.43;;;21.40;99.90;;;;;;492356;241;28895;-71
2021/08/12 08:43:38;;;;;;;3.83;3.43;;;21.60;99.90;;;;;;492333;241;28851;-71
2021/08/12 08:45:40;;;;;;;4.50;4.10;;;21.60;99.90;;;;;;492330;240;28875;-71
2021/08/12 08:47:41;;;;;;;3.57;3.27;;;21.60;99.90;;;;;;492370;241;28839;-71
2021/08/12 08:49:42;;;;;;;5.67;3.80;;;21.60;99.90;;;;;;492317;241;29231;-71
2021/08/12 08:51:43;;;;;;;3.60;3.30;;;21.70;99.90;;;;;;492324;241;29311;-71
2021/08/12 08:53:45;;;;;;;3.27;3.07;;;21.70;99.90;;;;;;492327;241;29350;-72
2021/08/12 08:55:46;;;;;;;3.43;3.13;;;21.70;99.90;;;;;;492301;241;28726;-71
2021/08/12 08:57:47;;;;;;;4.00;3.47;;;21.70;99.90;;;;;;492343;241;28826;-70
2021/08/12 08:59:48;;;;;;;3.93;3.50;;;21.80;99.90;;;;;;492339;241;28760;-72
2021/08/12 09:01:50;;;;;;;3.47;3.17;;;22.10;99.90;;;;;;492363;241;28902;-70
2021/08/12 09:03:51;;;;;;;4.03;3.63;;;22.10;99.90;;;;;;492340;241;28767;-71
2021/08/12 09:05:52;;;;;;;4.43;3.60;;;22.00;99.90;;;;;;492313;241;28923;-71
2021/08/12 09:07:53;;;;;;;3.77;3.43;;;22.00;99.90;;;;;;492362;241;28823;-72
2021/08/12 09:09:55;;;;;;;4.07;3.67;;;22.10;99.90;;;;;;492343;241;28859;-71
2021/08/12 09:11:56;;;;;;;3.50;3.20;;;22.10;99.90;;;;;;492351;241;29244;-71
2021/08/12 09:13:57;;;;;;;3.47;3.17;;;22.10;99.90;;;;;;492350;241;29977;-71
2021/08/12 09:15:59;;;;;;;3.93;3.53;;;22.20;99.90;;;;;;492356;241;29292;-72
2021/08/12 09:18:00;;;;;;;3.47;3.17;;;22.20;99.90;;;;;;492282;241;29293;-72
2021/08/12 09:20:01;;;;;;;3.87;3.43;;;22.30;99.90;;;;;;492331;241;28802;-71
2021/08/12 09:22:02;;;;;;;3.77;3.37;;;22.50;99.90;;;;;;492317;241;28811;-72
2021/08/12 09:24:03;;;;;;;4.10;3.70;;;22.60;99.90;;;;;;492335;241;28812;-72
2021/08/12 09:26:05;;;;;;;4.33;3.93;;;22.90;99.90;;;;;;492268;241;28690;-72
2021/08/12 09:28:06;;;;;;;4.23;3.63;;;23.10;99.90;;;;;;492285;241;28817;-71
2021/08/12 09:30:07;;;;;;;4.97;4.00;;;23.10;99.90;;;;;;492305;241;28780;-71
2021/08/12 09:32:08;;;;;;;3.50;3.20;;;23.30;99.90;;;;;;492310;241;28719;-71
2021/08/12 09:34:10;;;;;;;4.63;3.40;;;23.30;99.90;;;;;;492300;241;29360;-71
2021/08/12 09:36:11;;;;;;;3.93;3.60;;;23.30;99.90;;;;;;492319;241;29216;-71
2021/08/12 09:38:12;;;;;;;5.27;3.83;;;23.30;99.90;;;;;;492308;241;29270;-71
2021/08/12 09:40:13;;;;;;;4.67;4.13;;;23.40;99.90;;;;;;492316;240;28798;-70
2021/08/12 09:42:16;;;;;;;5.37;4.40;;;23.50;99.90;;;;;;492323;241;28803;-71
2021/08/12 09:44:16;;;;;;;4.10;3.80;;;23.60;99.90;;;;;;492287;241;28799;-71
2021/08/12 09:46:17;;;;;;;4.17;3.87;;;23.50;99.90;;;;;;492307;241;28680;-71
2021/08/12 09:48:19;;;;;;;4.47;4.07;;;23.40;99.90;;;;;;492310;241;28803;-71
2021/08/12 09:50:20;;;;;;;4.53;4.00;;;23.40;99.90;;;;;;492306;241;28795;-71
2021/08/12 09:52:21;;;;;;;3.70;3.37;;;23.70;99.90;;;;;;492327;241;28759;-72
2021/08/12 09:54:22;;;;;;;4.17;3.80;;;23.80;99.90;;;;;;492313;241;29264;-71
2021/08/12 09:56:23;;;;;;;4.90;4.00;;;23.70;99.90;;;;;;492325;241;28788;-72
2021/08/12 09:58:25;;;;;;;4.60;4.00;;;23.60;99.90;;;;;;492319;241;29303;-72
2021/08/12 10:00:26;;;;;;;5.03;4.03;;;23.70;99.90;;;;;;492310;241;29397;-72
2021/08/12 10:02:27;;;;;;;4.53;3.53;;;23.70;99.90;;;;;;492290;241;29298;-71
2021/08/12 10:04:28;;;;;;;4.70;4.23;;;23.70;99.90;;;;;;492321;241;28804;-71
2021/08/12 10:06:31;;;;;;;5.07;4.07;;;24.00;99.90;;;;;;492295;241;28672;-71
2021/08/12 10:08:31;;;;;;;4.37;3.97;;;24.00;99.90;;;;;;492266;241;28823;-72
2021/08/12 10:10:33;;;;;;;4.17;3.77;;;24.00;99.90;;;;;;492323;241;28756;-71
2021/08/12 10:12:33;;;;;;;4.00;3.70;;;24.00;99.90;;;;;;492250;241;28767;-72
2021/08/12 10:14:35;;;;;;;4.03;3.63;;;24.00;99.90;;;;;;492292;241;28905;-72
2021/08/12 10:16:36;;;;;;;4.03;3.63;;;24.00;99.90;;;;;;492308;241;28827;-71
2021/08/12 10:18:37;;;;;;;4.37;3.97;;;24.10;99.90;;;;;;492318;241;28820;-70
2021/08/12 10:20:38;;;;;;;3.40;3.17;;;24.20;99.90;;;;;;492322;241;28870;-71
2021/08/12 10:22:40;;;;;;;4.30;3.90;;;24.30;99.90;;;;;;492228;241;29361;-72
2021/08/12 10:24:41;;;;;;;4.60;4.20;;;24.50;99.90;;;;;;492311;241;29428;-72
2021/08/12 10:26:42;;;;;;;4.40;3.80;;;24.60;99.90;;;;;;492306;241;29315;-71
2021/08/12 10:28:43;;;;;;;3.97;3.57;;;24.70;99.90;;;;;;492321;241;28819;-70
2021/08/12 10:30:45;;;;;;;4.03;3.53;;;24.70;99.90;;;;;;492318;241;28810;-70
2021/08/12 10:32:46;;;;;;;5.30;4.20;;;24.60;99.90;;;;;;492297;241;28707;-71
2021/08/12 10:34:48;;;;;;;4.00;3.60;;;24.70;99.90;;;;;;492308;241;28933;-71
2021/08/12 10:36:48;;;;;;;4.33;3.90;;;24.80;99.90;;;;;;492306;241;28857;-71
2021/08/12 10:38:50;;;;;;;3.90;3.60;;;24.90;99.90;;;;;;492327;241;28812;-71